Airfield :
LOGIN :

Register | Disclaimer

   EN    FR    IT 

 










Legend :    VFR   Marginal VFR   IFR   Intensive IFR   Very Intensive IFR
Visi :
Ceiling :
>= 8 km
>= 3000ft
5 to 8 km
1000 to 3000 ft
1500m to 5 km
500 to 1000 ft
800 to 1500m
200 to 500 ft
< 800m
< 200 ft
Symbols :   Thunderstorms  Fog  Heavy snow  Heavy precipitations  Wind > 20 kt
SIGMETs :     Misc.  Thunderstorms  Icing  Turbulence  Mountain Waves  Volcanic Ashes






- Airport Elevation : 464 ft
- IATA code : EVX


LFOE - Evreux

CURRENT METAR :
  • 280400Z AUTO 17002KT CAVOK 09/08 Q1023 NOSIG

EXPIRED METARs :
  • 280330Z AUTO 19004KT CAVOK 09/08 Q1023
  • 280300Z AUTO 20004KT CAVOK 08/08 Q1023
  • 280230Z AUTO 20004KT CAVOK 09/08 Q1023
  • 280200Z AUTO 16004KT CAVOK 09/08 Q1023
  • 280130Z AUTO VRB02KT CAVOK 09/08 Q1023

TAF AMD TAF LFOE
Valid from the 28 at 03:00 until the 29 at 03:00 UTC


280330Z 2803/2903 20005KT CAVOK
PROB30
TEMPO 2812/2816 FEW050TCU
BECMG 2823/2901 4000 -RA BKN015
TEMPO 2901/2903 BKN008 BKN012TCU



MET'MAP, your aeronautical weather chart ! - Copyright ORBIFLY December 2007 - Disclaimer

ORBIFLY MET'MAP TEAM :

Programming & Development : Alexandra Zaïnal
Concept & original design : Baudouin d'Aumeries
Assistance for programming : Marc-Olivier Méhu
Technical & hardware support : Manuel Goepfert

Contact : metmap@orbifly.com




SOURCES & CREDITS :

   NOAA